createdAt,value
2019-05-26T00:02:00.096Z,15.00
2019-05-26T00:04:05.624Z,15.00
2019-05-26T00:06:11.243Z,15.20
2019-05-26T00:08:16.776Z,15.20
2019-05-26T00:10:22.396Z,15.20
2019-05-26T00:12:27.912Z,15.20
2019-05-26T00:14:33.596Z,15.20
2019-05-26T00:16:40.364Z,15.10
2019-05-26T00:18:45.898Z,15.10
2019-05-26T00:20:51.438Z,15.20
2019-05-26T00:22:56.984Z,15.20
2019-05-26T00:25:02.576Z,15.10
2019-05-26T00:27:08.448Z,15.10
2019-05-26T00:29:14.067Z,15.10
2019-05-26T00:31:19.789Z,15.10
2019-05-26T00:33:25.343Z,15.10
2019-05-26T00:35:30.910Z,15.10
2019-05-26T00:37:48.555Z,15.10
2019-05-26T00:39:44.816Z,15.10
2019-05-26T00:41:51.242Z,15.10
2019-05-26T00:43:56.771Z,15.20
2019-05-26T00:46:02.306Z,15.30
2019-05-26T00:48:09.050Z,15.30
2019-05-26T00:50:16.018Z,15.20
2019-05-26T00:52:21.621Z,15.10
2019-05-26T00:54:27.395Z,15.10
2019-05-26T00:56:33.006Z,15.10
2019-05-26T00:58:38.628Z,15.10
2019-05-26T01:00:44.809Z,15.00
2019-05-26T01:02:50.510Z,15.00
2019-05-26T01:04:56.107Z,15.00
2019-05-26T01:07:01.638Z,15.00
2019-05-26T01:09:08.915Z,14.90
2019-05-26T01:11:14.524Z,14.90
2019-05-26T01:13:20.048Z,14.90
2019-05-26T01:15:25.680Z,15.00
2019-05-26T01:17:31.213Z,15.10
2019-05-26T01:19:36.747Z,15.10
2019-05-26T01:21:42.376Z,15.10
2019-05-26T01:23:47.904Z,15.10
2019-05-26T01:25:53.436Z,15.10
2019-05-26T01:27:59.048Z,15.20
2019-05-26T01:30:10.103Z,15.20
2019-05-26T01:32:16.711Z,15.10
2019-05-26T01:34:22.236Z,15.10
2019-05-26T01:36:28.109Z,15.10
2019-05-26T01:38:33.940Z,15.00
2019-05-26T01:40:41.977Z,15.00
2019-05-26T01:42:47.506Z,15.00
2019-05-26T01:44:53.080Z,14.90
2019-05-26T01:46:58.619Z,14.90
2019-05-26T01:49:04.292Z,14.90
2019-05-26T01:51:10.971Z,14.80
2019-05-26T01:53:16.518Z,14.80
2019-05-26T01:55:22.048Z,14.80
2019-05-26T01:57:27.608Z,14.80
2019-05-26T01:59:33.172Z,14.80
2019-05-26T02:01:38.720Z,14.80
2019-05-26T02:03:44.340Z,14.80
2019-05-26T02:05:49.968Z,14.80
2019-05-26T02:07:55.568Z,14.80
2019-05-26T02:10:01.167Z,14.70
2019-05-26T02:12:06.873Z,14.70
2019-05-26T02:14:14.616Z,14.70
2019-05-26T02:16:19.844Z,14.70
2019-05-26T02:18:25.445Z,14.70
2019-05-26T02:20:32.044Z,14.60
2019-05-26T02:22:37.567Z,14.60
2019-05-26T02:24:43.124Z,14.60
2019-05-26T02:26:48.665Z,14.50
2019-05-26T02:28:54.217Z,14.40
2019-05-26T02:30:59.777Z,14.40
2019-05-26T02:33:05.527Z,14.50
2019-05-26T02:35:11.646Z,14.50
2019-05-26T02:37:17.181Z,14.50
2019-05-26T02:39:22.814Z,14.50
2019-05-26T02:41:28.355Z,14.40
2019-05-26T02:43:37.398Z,14.50
2019-05-26T02:45:42.989Z,14.40
2019-05-26T02:47:48.598Z,14.40
2019-05-26T02:49:54.206Z,14.40
2019-05-26T02:51:59.737Z,14.40
2019-05-26T02:54:05.415Z,14.30
2019-05-26T02:56:11.416Z,14.30
2019-05-26T02:58:16.957Z,14.20
2019-05-26T03:00:37.657Z,14.20
2019-05-26T03:02:43.824Z,14.20
2019-05-26T03:04:49.398Z,14.20
2019-05-26T03:06:55.970Z,14.20
2019-05-26T03:09:21.165Z,14.20
2019-05-26T03:11:12.463Z,14.20
2019-05-26T03:13:18.364Z,14.20
2019-05-26T03:15:23.956Z,14.30
2019-05-26T03:17:32.911Z,14.20
2019-05-26T03:19:41.316Z,14.20
2019-05-26T03:21:49.479Z,14.20
2019-05-26T03:23:55.470Z,14.10
2019-05-26T03:26:01.529Z,14.10
2019-05-26T03:28:09.054Z,14.10
2019-05-26T03:30:16.081Z,14.10
2019-05-26T03:32:21.679Z,14.10
2019-05-26T03:34:27.213Z,14.00
2019-05-26T03:36:32.821Z,14.10
2019-05-26T03:38:38.361Z,14.20
2019-05-26T03:40:44.129Z,14.20
2019-05-26T03:42:49.684Z,14.30
2019-05-26T03:44:55.214Z,14.30
2019-05-26T03:47:00.741Z,14.40
2019-05-26T03:49:06.361Z,14.40
2019-05-26T03:51:12.025Z,14.40
2019-05-26T03:53:17.563Z,14.40
2019-05-26T03:55:23.134Z,14.40
2019-05-26T03:57:28.661Z,14.30
2019-05-26T03:59:34.193Z,14.30
2019-05-26T04:01:43.026Z,14.30
2019-05-26T04:03:48.555Z,14.20
2019-05-26T04:05:54.090Z,14.40
2019-05-26T04:08:04.351Z,14.40
2019-05-26T04:10:08.437Z,14.40
2019-05-26T04:12:13.980Z,14.40
2019-05-26T04:14:19.530Z,14.40
2019-05-26T04:16:25.076Z,14.30
2019-05-26T04:18:30.688Z,14.30
2019-05-26T04:20:36.232Z,14.20
2019-05-26T04:22:41.772Z,14.20
2019-05-26T04:24:47.309Z,14.00
2019-05-26T04:26:52.882Z,14.00
2019-05-26T04:28:58.413Z,14.00
2019-05-26T04:31:04.016Z,14.00
2019-05-26T04:33:09.580Z,14.00
2019-05-26T04:35:15.253Z,14.00
2019-05-26T04:37:20.783Z,14.20
2019-05-26T04:39:26.330Z,14.20
2019-05-26T04:41:31.865Z,14.30
2019-05-26T04:43:37.457Z,14.40
2019-05-26T04:45:42.993Z,14.50
2019-05-26T04:47:48.525Z,14.50
2019-05-26T04:49:54.111Z,14.50
2019-05-26T04:51:59.663Z,14.60
2019-05-26T04:54:05.625Z,14.50
2019-05-26T04:56:11.135Z,14.60
2019-05-26T04:58:21.039Z,14.60
2019-05-26T05:00:26.566Z,14.60
2019-05-26T05:02:32.099Z,14.50
2019-05-26T05:04:37.655Z,14.60
2019-05-26T05:06:44.290Z,14.60
2019-05-26T05:08:49.829Z,14.50
2019-05-26T05:10:55.368Z,14.70
2019-05-26T05:13:00.909Z,14.70
2019-05-26T05:15:07.725Z,14.70
2019-05-26T05:17:13.275Z,14.80
2019-05-26T05:19:18.867Z,14.80
2019-05-26T05:21:24.473Z,14.70
2019-05-26T05:23:30.108Z,14.70
2019-05-26T05:25:35.630Z,14.80
2019-05-26T05:27:41.156Z,14.80
2019-05-26T05:29:46.721Z,14.70
2019-05-26T05:31:52.261Z,14.70
2019-05-26T05:33:57.797Z,14.70
2019-05-26T05:36:03.335Z,14.80
2019-05-26T05:38:08.859Z,14.80
2019-05-26T05:40:16.401Z,14.90
2019-05-26T05:42:21.936Z,15.00
2019-05-26T05:44:27.567Z,15.10
2019-05-26T05:46:33.080Z,15.00
2019-05-26T05:48:38.654Z,15.10
2019-05-26T05:50:44.177Z,15.30
2019-05-26T05:52:49.767Z,15.10
2019-05-26T05:54:55.316Z,15.20
2019-05-26T05:57:00.886Z,15.20
2019-05-26T05:59:06.434Z,15.20
2019-05-26T06:01:11.968Z,15.40
2019-05-26T06:03:18.708Z,15.40
2019-05-26T06:05:24.550Z,15.40
2019-05-26T06:07:30.080Z,15.60
2019-05-26T06:09:35.617Z,15.80
2019-05-26T06:11:41.143Z,16.10
2019-05-26T06:13:46.702Z,16.30
2019-05-26T06:15:52.371Z,16.50
2019-05-26T06:17:57.950Z,16.60
2019-05-26T06:20:04.668Z,16.60
2019-05-26T06:22:10.201Z,16.90
2019-05-26T06:24:15.738Z,17.30
2019-05-26T06:26:21.669Z,17.60
2019-05-26T06:28:27.284Z,17.90
2019-05-26T06:30:32.820Z,18.10
2019-05-26T06:32:39.860Z,18.40
2019-05-26T06:34:45.482Z,18.80
2019-05-26T06:36:50.982Z,19.10
2019-05-26T06:38:56.526Z,19.30
2019-05-26T06:41:02.071Z,19.60
2019-05-26T06:43:07.608Z,19.80
2019-05-26T06:45:14.630Z,20.00
2019-05-26T06:47:20.215Z,20.00
2019-05-26T06:49:25.754Z,20.00
2019-05-26T06:51:31.348Z,19.80
2019-05-26T06:53:37.991Z,20.30
2019-05-26T06:55:43.535Z,20.60
2019-05-26T06:57:49.081Z,20.70
2019-05-26T06:59:54.628Z,20.80
2019-05-26T07:02:00.295Z,21.00
2019-05-26T07:04:05.974Z,21.10
2019-05-26T07:06:11.534Z,21.20
2019-05-26T07:08:17.074Z,21.30
2019-05-26T07:10:22.588Z,21.60
2019-05-26T07:12:28.196Z,21.30
2019-05-26T07:14:33.842Z,21.50
2019-05-26T07:16:39.373Z,21.80
2019-05-26T07:18:44.906Z,22.20
2019-05-26T07:20:50.469Z,22.40
2019-05-26T07:22:57.043Z,22.60
2019-05-26T07:25:02.658Z,22.80
2019-05-26T07:27:08.220Z,22.80
2019-05-26T07:29:13.771Z,23.00
2019-05-26T07:31:19.352Z,22.90
2019-05-26T07:33:24.897Z,22.60
2019-05-26T07:35:33.092Z,22.80
2019-05-26T07:37:37.721Z,23.10
2019-05-26T07:39:43.347Z,22.50
2019-05-26T07:41:48.864Z,22.70
2019-05-26T07:43:54.394Z,22.80
2019-05-26T07:45:59.966Z,22.70
2019-05-26T07:48:05.490Z,23.00
2019-05-26T07:50:11.948Z,23.30
2019-05-26T07:52:17.510Z,23.20
2019-05-26T07:54:25.881Z,22.70
2019-05-26T07:56:30.260Z,23.10
2019-05-26T07:58:35.830Z,23.10
2019-05-26T08:00:41.366Z,22.80
2019-05-26T08:02:46.909Z,23.10
2019-05-26T08:04:52.432Z,23.30
2019-05-26T08:06:58.199Z,23.30
2019-05-26T08:09:05.336Z,22.70
2019-05-26T08:11:10.959Z,22.60
2019-05-26T08:13:16.473Z,22.80
2019-05-26T08:15:22.047Z,23.00
2019-05-26T08:17:27.697Z,23.40
2019-05-26T08:19:33.237Z,23.80
2019-05-26T08:21:38.776Z,23.90
2019-05-26T08:23:44.344Z,24.00
2019-05-26T08:25:49.943Z,23.70
2019-05-26T08:27:55.474Z,23.40
2019-05-26T08:30:01.093Z,23.50
2019-05-26T08:32:06.736Z,23.80
2019-05-26T08:34:12.296Z,24.10
2019-05-26T08:36:17.829Z,23.40
2019-05-26T08:38:23.416Z,23.70
2019-05-26T08:40:28.957Z,23.30
2019-05-26T08:42:44.122Z,23.90
2019-05-26T08:44:41.668Z,24.30
2019-05-26T08:46:48.165Z,24.50
2019-05-26T08:48:53.696Z,24.50
2019-05-26T08:51:00.189Z,24.80
2019-05-26T08:53:05.897Z,25.10
2019-05-26T08:55:11.553Z,25.30
2019-05-26T08:57:17.148Z,24.70
2019-05-26T08:59:22.677Z,24.70
2019-05-26T09:01:28.654Z,25.00
2019-05-26T09:03:34.178Z,25.40
2019-05-26T09:05:39.732Z,25.60
2019-05-26T09:07:45.307Z,25.70
2019-05-26T09:09:50.863Z,25.70
2019-05-26T09:11:56.696Z,24.90
2019-05-26T09:14:02.307Z,25.00
2019-05-26T09:16:07.851Z,25.20
2019-05-26T09:18:13.523Z,25.10
2019-05-26T09:20:20.634Z,25.20
2019-05-26T09:22:26.239Z,25.40
2019-05-26T09:24:31.801Z,25.40
2019-05-26T09:26:37.325Z,25.50
2019-05-26T09:28:42.872Z,25.70
2019-05-26T09:30:49.473Z,25.70
2019-05-26T09:32:54.980Z,25.80
2019-05-26T09:35:00.531Z,25.10
2019-05-26T09:37:11.816Z,25.50
2019-05-26T09:39:18.516Z,25.60
2019-05-26T09:41:24.072Z,25.70
2019-05-26T09:43:32.612Z,25.60
2019-05-26T09:45:39.295Z,25.10
2019-05-26T09:47:44.887Z,25.10
2019-05-26T09:49:50.401Z,24.90
2019-05-26T09:51:56.002Z,24.50
2019-05-26T09:54:02.332Z,24.10
2019-05-26T09:56:08.910Z,24.50
2019-05-26T09:58:14.499Z,25.10
2019-05-26T10:00:20.968Z,25.30
2019-05-26T10:02:26.510Z,25.40
2019-05-26T10:04:32.013Z,25.10
2019-05-26T10:06:37.612Z,24.90
2019-05-26T10:08:43.228Z,24.70
2019-05-26T10:10:48.761Z,24.50
2019-05-26T10:12:54.320Z,24.20
2019-05-26T10:14:59.836Z,24.10
2019-05-26T10:17:05.737Z,24.00
2019-05-26T10:19:11.393Z,23.90
2019-05-26T10:21:16.923Z,23.90
2019-05-26T10:23:22.453Z,24.20
2019-05-26T10:25:28.149Z,24.50
2019-05-26T10:27:33.685Z,24.50
2019-05-26T10:29:39.181Z,24.90
2019-05-26T10:31:44.768Z,24.90
2019-05-26T10:33:50.332Z,24.40
2019-05-26T10:35:56.088Z,23.70
2019-05-26T10:38:01.806Z,23.50
2019-05-26T10:40:07.858Z,23.20
2019-05-26T10:42:13.433Z,23.00
2019-05-26T10:44:19.037Z,23.10
2019-05-26T10:46:24.601Z,23.10
2019-05-26T10:48:30.123Z,23.40
2019-05-26T10:50:35.747Z,23.80
2019-05-26T10:52:41.253Z,24.20
2019-05-26T10:54:46.792Z,24.20
2019-05-26T10:56:52.353Z,24.60
2019-05-26T10:58:57.885Z,24.70
2019-05-26T11:01:04.149Z,25.10
2019-05-26T11:03:09.800Z,25.40
2019-05-26T11:05:15.621Z,25.50
2019-05-26T11:07:21.279Z,25.50
2019-05-26T11:09:26.865Z,25.60
2019-05-26T11:11:32.361Z,25.50
2019-05-26T11:13:40.695Z,25.60
2019-05-26T11:15:46.198Z,25.60
2019-05-26T11:17:55.723Z,25.80
2019-05-26T11:20:01.292Z,25.80
2019-05-26T11:22:06.880Z,25.80
2019-05-26T11:24:12.444Z,25.90
2019-05-26T11:26:18.161Z,25.90
2019-05-26T11:28:23.733Z,25.40
2019-05-26T11:30:29.433Z,25.40
2019-05-26T11:32:35.056Z,25.60
2019-05-26T11:34:40.640Z,25.70
2019-05-26T11:36:46.152Z,25.80
2019-05-26T11:38:51.765Z,25.80
2019-05-26T11:40:57.889Z,25.70
2019-05-26T11:43:15.720Z,25.10
2019-05-26T11:45:11.008Z,25.40
2019-05-26T11:47:16.817Z,25.60
2019-05-26T11:49:22.516Z,25.40
2019-05-26T11:51:28.093Z,25.30
2019-05-26T11:53:33.732Z,25.60
2019-05-26T11:55:39.232Z,25.80
2019-05-26T11:57:44.812Z,25.90
2019-05-26T11:59:50.389Z,25.90
2019-05-26T12:01:55.970Z,25.70
2019-05-26T12:04:01.557Z,25.80
2019-05-26T12:06:07.146Z,25.70
2019-05-26T12:08:12.649Z,25.10
2019-05-26T12:10:19.196Z,24.70
2019-05-26T12:12:24.849Z,24.80
2019-05-26T12:14:34.846Z,24.90
2019-05-26T12:16:37.718Z,25.10
2019-05-26T12:18:43.289Z,25.40
2019-05-26T12:20:48.788Z,25.40
2019-05-26T12:22:54.364Z,25.50
2019-05-26T12:24:59.943Z,25.50
2019-05-26T12:27:05.826Z,25.50
2019-05-26T12:29:11.441Z,25.50
2019-05-26T12:31:16.994Z,25.30
2019-05-26T12:33:22.563Z,25.20
2019-05-26T12:35:29.829Z,25.10
2019-05-26T12:37:35.401Z,25.20
2019-05-26T12:39:40.892Z,25.10
2019-05-26T12:41:46.525Z,25.10
2019-05-26T12:43:52.160Z,25.20
2019-05-26T12:45:57.724Z,25.30
2019-05-26T12:48:03.308Z,25.20
2019-05-26T12:50:10.799Z,25.20
2019-05-26T12:52:16.382Z,25.20
2019-05-26T12:54:21.979Z,25.20
2019-05-26T12:56:27.477Z,25.40
2019-05-26T12:58:33.085Z,25.40
2019-05-26T13:00:48.647Z,25.50
2019-05-26T13:02:45.841Z,25.40
2019-05-26T13:04:51.351Z,25.20
2019-05-26T13:06:56.866Z,25.10
2019-05-26T13:09:02.509Z,24.80
2019-05-26T13:11:08.116Z,24.70
2019-05-26T13:13:13.777Z,24.70
2019-05-26T13:15:20.119Z,24.80
2019-05-26T13:17:25.701Z,24.80
2019-05-26T13:19:31.201Z,24.80
2019-05-26T13:21:36.718Z,24.90
2019-05-26T13:23:42.280Z,24.80
2019-05-26T13:25:47.857Z,24.80
2019-05-26T13:27:53.591Z,24.60
2019-05-26T13:29:59.196Z,24.50
2019-05-26T13:32:05.108Z,24.50
2019-05-26T13:34:10.608Z,24.50
2019-05-26T13:36:16.201Z,24.60
2019-05-26T13:38:22.456Z,24.60
2019-05-26T13:40:29.626Z,24.70
2019-05-26T13:42:35.470Z,24.70
2019-05-26T13:44:40.956Z,24.70
2019-05-26T13:46:46.497Z,24.60
2019-05-26T13:48:52.678Z,24.60
2019-05-26T13:50:58.191Z,24.50
2019-05-26T13:53:04.908Z,24.60
2019-05-26T13:55:11.361Z,24.60
2019-05-26T13:57:17.936Z,24.80
2019-05-26T13:59:23.535Z,24.80
2019-05-26T14:01:30.120Z,24.90
2019-05-26T14:03:35.692Z,24.90
2019-05-26T14:05:41.339Z,25.10
2019-05-26T14:07:46.948Z,25.10
2019-05-26T14:09:52.507Z,25.00
2019-05-26T14:11:58.091Z,24.80
2019-05-26T14:14:03.723Z,24.80
2019-05-26T14:16:09.360Z,24.80
2019-05-26T14:18:17.890Z,24.60
2019-05-26T14:20:25.156Z,24.60
2019-05-26T14:22:30.696Z,24.80
2019-05-26T14:24:36.205Z,24.70
2019-05-26T14:26:41.706Z,24.70
2019-05-26T14:28:47.200Z,24.80
2019-05-26T14:30:52.775Z,24.70
2019-05-26T14:32:58.564Z,24.70
2019-05-26T14:35:05.868Z,24.70
2019-05-26T14:37:11.384Z,24.70
2019-05-26T14:39:17.353Z,24.80
2019-05-26T14:41:22.839Z,24.70
2019-05-26T14:43:28.378Z,24.80
2019-05-26T14:45:33.939Z,24.90
2019-05-26T14:47:39.575Z,24.80
2019-05-26T14:49:45.177Z,24.90
2019-05-26T14:51:50.753Z,24.90
2019-05-26T14:53:56.317Z,24.90
2019-05-26T14:56:01.877Z,24.90
2019-05-26T14:58:15.802Z,24.70
2019-05-26T15:00:15.668Z,24.80
2019-05-26T15:02:21.352Z,24.70
2019-05-26T15:04:26.852Z,24.50
2019-05-26T15:06:32.353Z,24.40
2019-05-26T15:08:37.868Z,24.40
2019-05-26T15:10:43.443Z,24.30
2019-05-26T15:12:48.936Z,24.30
2019-05-26T15:14:54.462Z,24.20
2019-05-26T15:17:00.036Z,24.20
2019-05-26T15:19:05.747Z,24.30
2019-05-26T15:21:11.272Z,24.30
2019-05-26T15:23:16.793Z,24.40
2019-05-26T15:25:22.352Z,24.40
2019-05-26T15:27:27.939Z,24.30
2019-05-26T15:29:33.477Z,24.20
2019-05-26T15:31:39.075Z,24.20
2019-05-26T15:33:44.679Z,24.10
2019-05-26T15:35:50.180Z,24.10
2019-05-26T15:37:55.752Z,24.20
2019-05-26T15:40:01.329Z,24.00
2019-05-26T15:42:08.404Z,23.90
2019-05-26T15:44:14.012Z,24.10
2019-05-26T15:46:25.269Z,24.10
2019-05-26T15:48:26.733Z,24.10
2019-05-26T15:50:32.236Z,24.10
2019-05-26T15:52:37.746Z,24.10
2019-05-26T15:54:43.253Z,23.90
2019-05-26T15:56:48.842Z,23.90
2019-05-26T15:58:54.416Z,24.00
2019-05-26T16:01:00.018Z,24.00
2019-05-26T16:03:05.572Z,23.90
2019-05-26T16:05:11.522Z,23.90
2019-05-26T16:07:17.116Z,23.70
2019-05-26T16:09:23.304Z,23.70
2019-05-26T16:11:28.812Z,23.70
2019-05-26T16:13:34.348Z,23.60
2019-05-26T16:15:39.909Z,23.50
2019-05-26T16:17:45.472Z,23.60
2019-05-26T16:19:51.136Z,23.60
2019-05-26T16:21:56.641Z,23.60
2019-05-26T16:24:02.207Z,23.60
2019-05-26T16:26:07.841Z,23.50
2019-05-26T16:28:13.413Z,23.40
2019-05-26T16:30:20.628Z,23.40
2019-05-26T16:32:26.184Z,23.40
2019-05-26T16:34:31.757Z,23.40
2019-05-26T16:36:37.273Z,23.40
2019-05-26T16:38:42.880Z,23.30
2019-05-26T16:40:48.438Z,23.30
2019-05-26T16:42:53.944Z,23.20
2019-05-26T16:44:59.540Z,23.10
2019-05-26T16:47:05.169Z,23.10
2019-05-26T16:49:10.712Z,23.10
2019-05-26T16:51:16.288Z,22.90
2019-05-26T16:53:21.931Z,23.00
2019-05-26T16:55:27.561Z,23.00
2019-05-26T16:57:33.340Z,23.00
2019-05-26T16:59:38.910Z,22.90
2019-05-26T17:01:44.595Z,22.90
2019-05-26T17:03:50.084Z,22.90
2019-05-26T17:06:07.528Z,22.80
2019-05-26T17:08:02.812Z,22.80
2019-05-26T17:10:09.484Z,22.80
2019-05-26T17:12:15.065Z,22.70
2019-05-26T17:14:20.667Z,22.60
2019-05-26T17:16:26.433Z,22.50
2019-05-26T17:18:32.029Z,22.40
2019-05-26T17:20:37.597Z,22.40
2019-05-26T17:22:43.192Z,22.30
2019-05-26T17:24:48.689Z,22.30
2019-05-26T17:26:54.312Z,22.20
2019-05-26T17:28:59.812Z,22.10
2019-05-26T17:31:05.871Z,22.20
2019-05-26T17:33:11.455Z,22.10
2019-05-26T17:35:17.994Z,22.20
2019-05-26T17:37:23.591Z,22.10
2019-05-26T17:39:29.171Z,22.10
2019-05-26T17:41:34.753Z,22.00
2019-05-26T17:43:40.320Z,22.00
2019-05-26T17:45:46.557Z,22.00
2019-05-26T17:47:52.128Z,22.00
2019-05-26T17:49:57.713Z,22.10
2019-05-26T17:52:03.236Z,21.90
2019-05-26T17:54:08.820Z,21.80
2019-05-26T17:56:14.406Z,21.90
2019-05-26T17:58:19.992Z,21.80
2019-05-26T18:00:25.673Z,21.80
2019-05-26T18:02:31.390Z,21.80
2019-05-26T18:04:37.040Z,21.70
2019-05-26T18:06:42.685Z,21.60
2019-05-26T18:08:48.262Z,21.50
2019-05-26T18:10:53.781Z,21.60
2019-05-26T18:12:59.444Z,21.50
2019-05-26T18:15:07.190Z,21.50
2019-05-26T18:17:12.773Z,21.50
2019-05-26T18:19:18.367Z,21.40
2019-05-26T18:21:23.940Z,21.40
2019-05-26T18:23:29.576Z,21.40
2019-05-26T18:25:35.329Z,21.40
2019-05-26T18:27:40.883Z,21.40
2019-05-26T18:29:46.571Z,21.30
2019-05-26T18:31:52.285Z,21.30
2019-05-26T18:33:57.773Z,21.30
2019-05-26T18:36:03.360Z,21.30
2019-05-26T18:38:09.024Z,21.20
2019-05-26T18:40:15.107Z,21.10
2019-05-26T18:42:21.600Z,21.00
2019-05-26T18:44:27.192Z,21.00
2019-05-26T18:46:32.797Z,21.00
2019-05-26T18:48:38.385Z,20.90
2019-05-26T18:50:43.965Z,20.90
2019-05-26T18:52:49.471Z,20.90
2019-05-26T18:55:07.081Z,20.80
2019-05-26T18:57:12.655Z,20.70
2019-05-26T18:59:18.152Z,20.70
2019-05-26T19:01:23.928Z,20.60
2019-05-26T19:03:29.501Z,20.50
2019-05-26T19:05:38.378Z,20.30
2019-05-26T19:07:42.401Z,20.30
2019-05-26T19:09:48.054Z,20.30
2019-05-26T19:11:53.556Z,20.20
2019-05-26T19:13:59.086Z,20.30
2019-05-26T19:16:05.033Z,20.20
2019-05-26T19:18:19.913Z,20.20
2019-05-26T19:20:18.194Z,20.20
2019-05-26T19:22:23.785Z,20.20
2019-05-26T19:24:41.333Z,20.00
2019-05-26T19:26:47.061Z,19.90
2019-05-26T19:28:52.636Z,19.80
2019-05-26T19:30:58.138Z,19.70
2019-05-26T19:33:03.896Z,19.60
2019-05-26T19:35:10.101Z,19.50
2019-05-26T19:37:15.730Z,19.50
2019-05-26T19:39:21.257Z,19.50
2019-05-26T19:41:26.833Z,19.50
2019-05-26T19:43:33.267Z,19.60
2019-05-26T19:45:58.188Z,19.70
2019-05-26T19:48:03.845Z,19.70
2019-05-26T19:50:10.051Z,19.40
2019-05-26T19:52:15.699Z,19.50
2019-05-26T19:54:21.282Z,19.40
2019-05-26T19:56:26.824Z,19.30
2019-05-26T19:58:51.809Z,19.30
2019-05-26T20:00:57.496Z,19.10
2019-05-26T20:03:03.182Z,19.10
2019-05-26T20:05:10.608Z,19.10
2019-05-26T20:07:16.129Z,19.20
2019-05-26T20:09:21.824Z,19.20
2019-05-26T20:11:27.519Z,19.20
2019-05-26T20:13:33.115Z,19.20
2019-05-26T20:15:38.917Z,19.10
2019-05-26T20:17:44.851Z,19.00
2019-05-26T20:19:50.378Z,19.00
2019-05-26T20:21:56.064Z,18.90
2019-05-26T20:24:01.711Z,18.90
2019-05-26T20:26:07.429Z,19.00
2019-05-26T20:28:13.089Z,19.10
2019-05-26T20:30:21.409Z,19.20
2019-05-26T20:32:26.050Z,19.20
2019-05-26T20:34:31.613Z,19.20
2019-05-26T20:36:37.121Z,19.20
2019-05-26T20:38:42.706Z,19.20
2019-05-26T20:40:48.252Z,19.20
2019-05-26T20:42:53.828Z,19.10
2019-05-26T20:44:59.364Z,19.10
2019-05-26T20:47:05.434Z,19.10
2019-05-26T20:49:10.904Z,19.10
2019-05-26T20:51:16.561Z,19.10
2019-05-26T20:53:22.091Z,19.10
2019-05-26T20:55:27.613Z,19.00
2019-05-26T20:57:33.142Z,18.90
2019-05-26T20:59:38.829Z,18.90
2019-05-26T21:01:44.440Z,18.90
2019-05-26T21:03:49.997Z,18.90
2019-05-26T21:05:55.595Z,18.90
2019-05-26T21:08:01.104Z,18.90
2019-05-26T21:10:07.279Z,18.80
2019-05-26T21:12:12.888Z,18.80
2019-05-26T21:14:18.576Z,18.70
2019-05-26T21:16:24.155Z,18.70
2019-05-26T21:18:29.760Z,18.70
2019-05-26T21:20:35.255Z,18.70
2019-05-26T21:22:40.836Z,18.60
2019-05-26T21:24:46.353Z,18.60
2019-05-26T21:26:51.865Z,18.60
2019-05-26T21:28:57.453Z,18.50
2019-05-26T21:31:02.981Z,18.50
2019-05-26T21:33:08.568Z,18.50
2019-05-26T21:35:14.373Z,18.40
2019-05-26T21:37:19.997Z,18.40
2019-05-26T21:39:25.513Z,18.40
2019-05-26T21:41:31.102Z,18.40
2019-05-26T21:43:36.629Z,18.40
2019-05-26T21:45:42.612Z,18.40
2019-05-26T21:47:48.257Z,18.30
2019-05-26T21:49:54.037Z,18.30
2019-05-26T21:51:59.540Z,18.30
2019-05-26T21:54:05.332Z,18.20
2019-05-26T21:56:11.012Z,18.20
2019-05-26T21:58:16.589Z,18.20
2019-05-26T22:00:27.859Z,18.20
2019-05-26T22:02:33.799Z,18.10
2019-05-26T22:04:39.396Z,18.10
2019-05-26T22:06:44.972Z,18.00
2019-05-26T22:08:50.500Z,18.00
2019-05-26T22:10:56.027Z,18.00
2019-05-26T22:13:01.604Z,18.00
2019-05-26T22:15:08.088Z,18.00
2019-05-26T22:17:13.780Z,18.00
2019-05-26T22:19:19.505Z,17.90
2019-05-26T22:21:25.070Z,17.90
2019-05-26T22:23:30.584Z,17.90
2019-05-26T22:25:36.183Z,17.90
2019-05-26T22:27:41.844Z,17.90
2019-05-26T22:29:47.436Z,17.80
2019-05-26T22:31:53.007Z,17.80
2019-05-26T22:33:58.616Z,17.80
2019-05-26T22:36:04.201Z,17.80
2019-05-26T22:38:09.773Z,17.80
2019-05-26T22:40:15.698Z,17.70
2019-05-26T22:42:22.178Z,17.70
2019-05-26T22:44:27.761Z,17.70
2019-05-26T22:46:33.390Z,17.80
2019-05-26T22:48:38.989Z,17.70
2019-05-26T22:50:44.516Z,17.70
2019-05-26T22:52:55.187Z,17.60
2019-05-26T22:55:00.834Z,17.70
2019-05-26T22:57:06.537Z,17.70
2019-05-26T22:59:13.207Z,17.70
2019-05-26T23:01:18.869Z,17.60
2019-05-26T23:03:24.450Z,17.60
2019-05-26T23:05:30.173Z,17.50
2019-05-26T23:07:39.197Z,17.40
2019-05-26T23:09:44.772Z,17.40
2019-05-26T23:11:54.872Z,17.40
2019-05-26T23:14:01.306Z,17.30
2019-05-26T23:16:06.892Z,17.30
2019-05-26T23:18:12.572Z,17.20
2019-05-26T23:20:18.213Z,17.20
2019-05-26T23:22:23.803Z,17.20
2019-05-26T23:24:29.421Z,17.20
2019-05-26T23:26:34.917Z,17.10
2019-05-26T23:28:40.573Z,17.20
2019-05-26T23:30:46.214Z,17.10
2019-05-26T23:32:51.788Z,17.20
2019-05-26T23:34:57.313Z,17.10
2019-05-26T23:37:02.865Z,17.10
2019-05-26T23:39:08.640Z,17.10
2019-05-26T23:41:14.229Z,17.10
2019-05-26T23:43:19.766Z,17.00
2019-05-26T23:45:25.294Z,17.00
2019-05-26T23:47:30.805Z,17.00
2019-05-26T23:49:36.425Z,17.00
2019-05-26T23:51:41.925Z,17.00
2019-05-26T23:53:47.437Z,17.00
2019-05-26T23:55:53.036Z,17.00
2019-05-26T23:57:58.544Z,17.00
